createdAt,value
2018-06-28T06:39:35.294Z,6.00
2018-06-28T06:42:02.045Z,6.17
2018-06-28T06:44:29.008Z,5.42
2018-06-28T06:46:55.965Z,5.65
2018-06-28T06:49:22.784Z,5.58
2018-06-28T06:51:49.751Z,6.10
2018-06-28T06:54:16.492Z,5.73
2018-06-28T06:56:43.304Z,5.62
2018-06-28T06:59:10.388Z,6.05
2018-06-28T07:01:38.192Z,5.83
2018-06-28T07:04:05.175Z,5.58
2018-06-28T07:06:31.922Z,5.42
2018-06-28T07:08:58.814Z,6.42
2018-06-28T07:11:25.918Z,5.47
2018-06-28T07:13:52.736Z,5.80
2018-06-28T07:16:19.529Z,5.08
2018-06-28T07:18:46.303Z,5.65
2018-06-28T07:21:13.110Z,5.28
2018-06-28T07:23:39.878Z,5.17
2018-06-28T07:26:06.660Z,5.47
2018-06-28T07:28:33.521Z,4.75
2018-06-28T07:31:00.223Z,5.45
2018-06-28T07:33:27.198Z,5.25
2018-06-28T07:35:54.041Z,5.10
2018-06-28T07:38:20.835Z,5.10
2018-06-28T07:40:47.657Z,5.35
2018-06-28T07:43:14.463Z,5.03
2018-06-28T07:45:41.154Z,4.75
2018-06-28T07:48:08.047Z,4.83
2018-06-28T07:50:34.810Z,4.53
2018-06-28T07:53:01.593Z,4.95
2018-06-28T07:55:28.472Z,4.12
2018-06-28T07:57:55.155Z,4.45
2018-06-28T08:00:22.447Z,3.83
2018-06-28T08:02:49.900Z,3.83
2018-06-28T08:05:16.718Z,4.53
2018-06-28T08:07:43.448Z,4.70
2018-06-28T08:10:10.185Z,4.40
2018-06-28T08:12:36.970Z,3.77
2018-06-28T08:15:03.675Z,4.20
2018-06-28T08:17:30.660Z,4.30
2018-06-28T08:19:57.562Z,4.20
2018-06-28T08:22:24.479Z,4.20
2018-06-28T08:24:51.265Z,3.80
2018-06-28T08:27:18.039Z,4.05
2018-06-28T08:29:44.791Z,4.03
2018-06-28T08:32:11.708Z,3.50
2018-06-28T08:34:38.454Z,3.30
2018-06-28T08:37:05.278Z,3.20
2018-06-28T08:39:32.522Z,3.65
2018-06-28T08:41:59.815Z,3.80
2018-06-28T08:44:26.583Z,3.22
2018-06-28T08:49:23.760Z,2.73
2018-06-28T08:51:50.540Z,2.98
2018-06-28T08:54:17.282Z,3.02
2018-06-28T08:56:44.135Z,3.12
2018-06-28T08:59:11.031Z,2.92
2018-06-28T09:01:37.820Z,2.37
2018-06-28T09:04:04.688Z,3.22
2018-06-28T09:06:31.545Z,3.00
2018-06-28T09:08:58.322Z,3.00
2018-06-28T09:11:25.064Z,2.70
2018-06-28T09:13:51.796Z,2.50
2018-06-28T09:16:18.542Z,2.77
2018-06-28T09:18:45.346Z,2.60
2018-06-28T09:21:12.145Z,2.70
2018-06-28T09:23:38.902Z,2.60
2018-06-28T09:26:05.642Z,2.50
2018-06-28T09:28:32.297Z,2.30
2018-06-28T09:30:58.977Z,2.33
2018-06-28T09:33:25.984Z,2.25
2018-06-28T09:35:52.782Z,2.58
2018-06-28T09:38:19.575Z,2.92
2018-06-28T09:40:46.327Z,2.50
2018-06-28T09:43:13.082Z,3.10
2018-06-28T09:45:39.835Z,2.40
2018-06-28T09:48:06.627Z,2.37
2018-06-28T09:50:33.455Z,2.62
2018-06-28T09:53:00.191Z,2.80
2018-06-28T09:55:26.932Z,2.80
2018-06-28T09:57:56.455Z,2.85
2018-06-28T10:00:28.890Z,2.75
2018-06-28T10:02:55.651Z,2.60
2018-06-28T10:05:22.521Z,2.92
2018-06-28T10:07:49.291Z,2.30
2018-06-28T10:10:16.595Z,2.75
2018-06-28T10:12:43.570Z,2.72
2018-06-28T10:15:10.514Z,2.77
2018-06-28T10:17:37.345Z,3.33
2018-06-28T10:20:04.106Z,2.98
2018-06-28T10:22:30.855Z,3.05
2018-06-28T10:24:57.643Z,2.50
2018-06-28T10:27:24.377Z,2.85
2018-06-28T10:29:53.169Z,2.55
2018-06-28T10:32:20.055Z,2.90
2018-06-28T10:34:47.154Z,2.98
2018-06-28T10:37:13.978Z,2.90
2018-06-28T10:39:40.862Z,2.80
2018-06-28T10:42:07.635Z,2.98
2018-06-28T10:44:34.403Z,2.87
2018-06-28T10:47:01.153Z,2.60
2018-06-28T10:49:27.943Z,3.17
2018-06-28T10:51:54.615Z,3.00
2018-06-28T10:54:21.309Z,3.05
2018-06-28T10:56:48.066Z,2.60
2018-06-28T10:59:14.818Z,2.70
2018-06-28T11:01:41.573Z,2.90
2018-06-28T11:04:08.340Z,2.80
2018-06-28T11:06:35.149Z,3.00
2018-06-28T11:09:02.052Z,2.80
2018-06-28T11:11:28.809Z,2.65
2018-06-28T11:13:55.572Z,3.00
2018-06-28T11:16:22.340Z,3.33
2018-06-28T11:18:49.109Z,3.20
2018-06-28T11:21:15.915Z,3.02
2018-06-28T11:23:42.712Z,3.15
2018-06-28T11:26:09.408Z,2.90
2018-06-28T11:28:36.209Z,2.70
2018-06-28T11:31:03.056Z,3.00
2018-06-28T11:33:29.896Z,3.10
2018-06-28T11:35:56.707Z,3.02
2018-06-28T11:38:23.465Z,3.25
2018-06-28T11:40:50.329Z,2.98
2018-06-28T11:43:17.072Z,3.30
2018-06-28T11:45:43.862Z,3.65
2018-06-28T11:48:10.557Z,3.12
2018-06-28T11:50:37.279Z,3.30
2018-06-28T11:53:04.028Z,3.02
2018-06-28T11:55:30.811Z,3.02
2018-06-28T11:57:57.627Z,2.70
2018-06-28T12:00:24.431Z,3.00
2018-06-28T12:02:51.145Z,2.92
2018-06-28T12:05:17.903Z,3.15
2018-06-28T12:07:44.604Z,2.85
2018-06-28T12:10:11.369Z,2.50
2018-06-28T12:12:38.188Z,2.70
2018-06-28T12:15:04.933Z,2.70
2018-06-28T12:17:31.650Z,2.95
2018-06-28T12:19:58.401Z,2.80
2018-06-28T12:22:25.153Z,2.70
2018-06-28T12:24:51.905Z,2.72
2018-06-28T12:27:18.717Z,2.70
2018-06-28T12:29:45.452Z,2.95
2018-06-28T12:32:12.156Z,2.60
2018-06-28T12:34:38.982Z,3.17
2018-06-28T12:37:05.756Z,2.67
2018-06-28T12:39:32.508Z,2.80
2018-06-28T12:41:59.282Z,2.55
2018-06-28T12:44:26.013Z,2.40
2018-06-28T12:46:52.740Z,2.98
2018-06-28T12:49:19.541Z,2.77
2018-06-28T12:51:46.334Z,2.62
2018-06-28T12:54:13.091Z,2.52
2018-06-28T12:56:41.551Z,2.90
2018-06-28T12:59:10.296Z,2.92
2018-06-28T13:01:37.069Z,2.83
2018-06-28T13:04:03.845Z,2.70
2018-06-28T13:06:30.536Z,2.87
2018-06-28T13:08:57.970Z,2.87
2018-06-28T13:11:25.272Z,2.47
2018-06-28T13:13:52.288Z,2.37
2018-06-28T13:16:19.810Z,2.47
2018-06-28T13:18:47.393Z,2.25
2018-06-28T13:21:14.159Z,2.55
2018-06-28T13:23:40.975Z,2.42
2018-06-28T13:26:08.372Z,2.47
2018-06-28T13:28:35.154Z,2.72
2018-06-28T13:31:02.082Z,2.20
2018-06-28T13:33:29.316Z,2.20
2018-06-28T13:35:56.107Z,2.45
2018-06-28T13:38:23.219Z,2.42
2018-06-28T13:40:49.990Z,2.25
2018-06-28T13:43:16.685Z,2.17
2018-06-28T13:45:43.470Z,2.60
2018-06-28T13:48:10.323Z,2.50
2018-06-28T13:50:37.205Z,2.40
2018-06-28T13:53:03.977Z,2.33
2018-06-28T13:55:30.785Z,2.60
2018-06-28T13:57:57.561Z,2.40
2018-06-28T14:00:24.323Z,2.70
2018-06-28T14:02:51.122Z,2.17
2018-06-28T14:05:17.838Z,2.40
2018-06-28T14:07:44.656Z,2.40
2018-06-28T14:10:11.527Z,2.42
2018-06-28T14:12:38.341Z,3.12
2018-06-28T14:15:05.371Z,2.22
2018-06-28T14:17:32.195Z,2.15
2018-06-28T14:19:59.044Z,2.47
2018-06-28T14:22:25.829Z,2.55
2018-06-28T14:24:52.572Z,2.10
2018-06-28T14:27:19.307Z,2.45
2018-06-28T14:29:46.121Z,2.30
2018-06-28T14:32:12.876Z,1.92
2018-06-28T14:34:39.680Z,2.08
2018-06-28T14:37:06.434Z,3.15
2018-06-28T14:39:33.280Z,2.55
2018-06-28T14:42:00.196Z,2.70
2018-06-28T14:44:26.877Z,2.77
2018-06-28T14:46:53.648Z,2.80
2018-06-28T14:49:22.798Z,2.80
2018-06-28T14:51:53.586Z,2.83
2018-06-28T14:54:21.630Z,2.75
2018-06-28T14:56:52.782Z,3.33
2018-06-28T14:59:21.158Z,2.80
2018-06-28T15:01:47.911Z,2.70
2018-06-28T15:04:14.843Z,2.52
2018-06-28T15:06:41.736Z,2.50
2018-06-28T15:09:10.334Z,2.60
2018-06-28T15:11:37.254Z,2.87
2018-06-28T15:14:04.129Z,2.75
2018-06-28T15:16:31.249Z,2.70
2018-06-28T15:18:58.251Z,2.02
2018-06-28T15:21:25.121Z,2.52
2018-06-28T15:23:51.954Z,2.58
2018-06-28T15:26:18.741Z,3.00
2018-06-28T15:28:45.659Z,2.58
2018-06-28T15:31:12.599Z,2.37
2018-06-28T15:33:39.411Z,2.47
2018-06-28T15:36:06.198Z,2.47
2018-06-28T15:38:33.036Z,2.42
2018-06-28T15:40:59.847Z,2.05
2018-06-28T15:43:26.533Z,2.37
2018-06-28T15:45:53.438Z,2.45
2018-06-28T15:48:20.150Z,2.25
2018-06-28T15:50:46.895Z,2.50
2018-06-28T15:53:13.561Z,2.35
2018-06-28T15:55:40.265Z,2.50
2018-06-28T15:58:06.966Z,2.45
2018-06-28T16:00:33.937Z,2.40
2018-06-28T16:03:00.750Z,2.22
2018-06-28T16:05:27.370Z,2.60
2018-06-28T16:07:54.049Z,2.45
2018-06-28T16:10:20.911Z,2.35
2018-06-28T16:12:47.752Z,2.47
2018-06-28T16:15:14.529Z,2.30
2018-06-28T16:17:41.363Z,1.87
2018-06-28T16:20:08.145Z,2.00
2018-06-28T16:22:35.009Z,2.20
2018-06-28T16:25:01.837Z,2.20
2018-06-28T16:27:28.675Z,2.33
2018-06-28T16:29:55.482Z,2.08
2018-06-28T16:32:22.308Z,2.15
2018-06-28T16:34:49.313Z,2.25
2018-06-28T16:37:16.152Z,2.10
2018-06-28T16:39:43.038Z,2.22
2018-06-28T16:42:15.509Z,2.00
2018-06-28T16:44:48.455Z,2.22
2018-06-28T16:47:16.013Z,2.22
2018-06-28T16:49:42.853Z,2.67
2018-06-28T16:52:09.960Z,2.60
2018-06-28T16:54:40.760Z,2.15
2018-06-28T16:57:09.900Z,1.80
2018-06-28T17:02:26.379Z,2.70
2018-06-28T17:04:53.146Z,2.50
2018-06-28T17:07:19.894Z,2.10
2018-06-28T17:09:46.675Z,2.12
2018-06-28T17:12:13.589Z,2.17
2018-06-28T17:14:40.440Z,2.40
2018-06-28T17:17:07.218Z,1.95
2018-06-28T17:19:33.965Z,2.42
2018-06-28T17:22:00.884Z,2.15
2018-06-28T17:24:28.113Z,2.30
2018-06-28T17:26:56.228Z,2.45
2018-06-28T17:29:23.050Z,2.35
2018-06-28T17:31:49.931Z,2.00
2018-06-28T17:34:16.621Z,2.30
2018-06-28T17:36:43.408Z,2.00
2018-06-28T17:39:10.187Z,2.15
2018-06-28T17:41:37.001Z,2.10
2018-06-28T17:44:03.824Z,2.00
2018-06-28T17:46:30.649Z,1.98
2018-06-28T17:48:57.584Z,2.20
2018-06-28T17:51:24.423Z,1.95
2018-06-28T17:53:51.524Z,2.20
2018-06-28T17:56:18.807Z,1.85
2018-06-28T17:58:45.612Z,2.00
2018-06-28T18:01:12.396Z,2.22
2018-06-28T18:03:39.229Z,2.15
2018-06-28T18:06:05.992Z,1.80
2018-06-28T18:08:32.731Z,1.90
2018-06-28T18:10:59.555Z,2.08
2018-06-28T18:13:26.377Z,2.10
2018-06-28T18:15:53.289Z,2.00
2018-06-28T18:18:20.389Z,1.80
2018-06-28T18:20:47.226Z,2.08
2018-06-28T18:23:13.986Z,1.85
2018-06-28T18:25:40.799Z,2.12
2018-06-28T18:28:08.762Z,2.20
2018-06-28T18:30:36.606Z,2.02
2018-06-28T18:33:03.487Z,2.02
2018-06-28T18:35:30.364Z,1.77
2018-06-28T18:37:57.264Z,2.22
2018-06-28T18:40:24.080Z,2.02
2018-06-28T18:42:50.900Z,2.35
2018-06-28T18:45:17.778Z,1.70
2018-06-28T18:47:44.563Z,2.00
2018-06-28T18:50:11.708Z,2.10
2018-06-28T18:52:38.753Z,2.45
2018-06-28T18:55:05.608Z,2.10
2018-06-28T18:57:32.454Z,2.33
2018-06-28T18:59:59.322Z,1.85
2018-06-28T19:02:26.136Z,2.58
2018-06-28T19:04:53.014Z,2.52
2018-06-28T19:07:19.859Z,2.65
2018-06-28T19:09:52.165Z,2.30
2018-06-28T19:12:19.060Z,2.40
2018-06-28T19:14:51.337Z,2.08
2018-06-28T19:17:18.125Z,2.08
2018-06-28T19:19:44.963Z,2.70
2018-06-28T19:22:17.311Z,2.08
2018-06-28T19:24:44.223Z,2.58
2018-06-28T19:27:11.051Z,2.33
2018-06-28T19:29:43.414Z,2.75
2018-06-28T19:32:15.715Z,2.60
2018-06-28T19:34:42.601Z,2.60
2018-06-28T19:37:13.905Z,2.98
2018-06-28T19:40:46.019Z,2.87
2018-06-28T19:43:14.597Z,2.33
2018-06-28T19:45:41.411Z,2.50
2018-06-28T19:48:09.199Z,2.77
2018-06-28T19:50:41.560Z,2.22
2018-06-28T19:53:12.035Z,2.17
2018-06-28T19:55:38.963Z,2.60
2018-06-28T19:58:06.399Z,2.10
2018-06-28T20:03:14.157Z,2.60
2018-06-28T20:05:41.087Z,2.30
2018-06-28T20:08:08.328Z,2.70
2018-06-28T20:10:35.254Z,2.40
2018-06-28T20:13:07.744Z,2.47
2018-06-28T20:15:40.155Z,2.50
2018-06-28T20:18:13.104Z,2.72
2018-06-28T20:20:39.965Z,2.85
2018-06-28T20:23:07.491Z,2.83
2018-06-28T20:25:34.477Z,2.85
2018-06-28T20:28:07.239Z,2.45
2018-06-28T20:30:39.803Z,2.83
2018-06-28T20:33:12.936Z,2.35
2018-06-28T20:35:40.091Z,2.75
2018-06-28T20:38:06.950Z,2.35
2018-06-28T20:40:33.822Z,2.77
2018-06-28T20:43:00.811Z,2.50
2018-06-28T20:45:27.837Z,2.40
2018-06-28T20:47:54.706Z,2.87
2018-06-28T20:50:21.456Z,2.55
2018-06-28T20:52:48.802Z,2.75
2018-06-28T20:55:15.998Z,2.77
2018-06-28T20:57:42.844Z,2.83
2018-06-28T21:00:10.469Z,2.67
2018-06-28T21:02:38.318Z,2.77
2018-06-28T21:05:05.379Z,2.65
2018-06-28T21:07:32.164Z,2.90
2018-06-28T21:09:59.619Z,2.83
2018-06-28T21:12:26.376Z,2.83
2018-06-28T21:14:53.072Z,2.83
2018-06-28T21:17:20.041Z,2.55
2018-06-28T21:19:47.659Z,2.67
2018-06-28T21:22:14.379Z,2.95
2018-06-28T21:24:41.355Z,3.22
2018-06-28T21:27:08.285Z,2.67
2018-06-28T21:29:35.075Z,2.60
2018-06-28T21:32:02.022Z,3.02
2018-06-28T21:34:28.984Z,2.55
2018-06-28T21:36:55.781Z,3.05
2018-06-28T21:39:22.519Z,3.10
2018-06-28T21:41:49.371Z,3.37
2018-06-28T21:44:16.165Z,3.10
2018-06-28T21:46:43.058Z,2.70
2018-06-28T21:49:10.141Z,3.20
2018-06-28T21:51:37.546Z,3.25
2018-06-28T21:54:04.647Z,3.33
2018-06-28T21:56:32.106Z,3.33
2018-06-28T21:58:59.155Z,2.92
2018-06-28T22:01:26.229Z,3.20
2018-06-28T22:03:53.494Z,2.90
2018-06-28T22:06:20.420Z,3.08
2018-06-28T22:08:47.341Z,2.70
2018-06-28T22:11:14.288Z,3.08
2018-06-28T22:13:41.146Z,3.08
2018-06-28T22:16:08.089Z,3.37
2018-06-28T22:18:34.825Z,3.17
2018-06-28T22:21:02.663Z,3.20
2018-06-28T22:23:29.780Z,2.80
2018-06-28T22:25:57.030Z,3.42
2018-06-28T22:28:24.841Z,2.95
2018-06-28T22:30:52.073Z,3.05
2018-06-28T22:33:18.806Z,3.42
2018-06-28T22:35:45.957Z,3.30
2018-06-28T22:38:12.652Z,3.00
2018-06-28T22:40:39.441Z,3.33
2018-06-28T22:43:06.354Z,3.42
2018-06-28T22:45:33.171Z,3.08
2018-06-28T22:47:59.880Z,3.77
2018-06-28T22:50:27.878Z,3.60
2018-06-28T22:52:54.967Z,2.70
2018-06-28T22:55:21.792Z,3.30
2018-06-28T22:57:48.551Z,3.47
2018-06-28T23:00:16.014Z,3.50
2018-06-28T23:02:43.562Z,3.12
2018-06-28T23:05:10.514Z,3.25
2018-06-28T23:07:38.452Z,3.47
2018-06-28T23:10:05.331Z,3.25
2018-06-28T23:12:32.104Z,3.35
2018-06-28T23:14:59.551Z,3.12
2018-06-28T23:17:26.456Z,3.58
2018-06-28T23:19:53.485Z,3.42
2018-06-28T23:22:20.366Z,3.30
2018-06-28T23:24:47.259Z,3.40
2018-06-28T23:27:14.124Z,3.22
2018-06-28T23:29:40.955Z,3.33
2018-06-28T23:32:07.719Z,3.10
2018-06-28T23:34:34.704Z,3.10
2018-06-28T23:37:01.502Z,3.05
2018-06-28T23:39:28.220Z,3.10
2018-06-28T23:41:57.075Z,3.25
2018-06-28T23:44:23.894Z,3.80
2018-06-28T23:46:50.649Z,3.30
2018-06-28T23:49:17.503Z,3.85
2018-06-28T23:51:44.349Z,3.08
2018-06-28T23:54:11.815Z,3.67
2018-06-28T23:56:38.574Z,3.50
2018-06-28T23:59:05.508Z,3.67
